createdAt,value
2022-08-23T00:00:10.969Z,49.79
2022-08-23T00:02:43.351Z,50.07
2022-08-23T00:05:11.166Z,50.08
2022-08-23T00:07:39.413Z,50.29
2022-08-23T00:10:08.640Z,50.31
2022-08-23T00:12:36.164Z,49.96
2022-08-23T00:15:04.449Z,50.10
2022-08-23T00:17:34.966Z,50.43
2022-08-23T00:20:06.562Z,50.25
2022-08-23T00:22:34.173Z,49.99
2022-08-23T00:25:01.454Z,50.26
2022-08-23T00:27:28.721Z,50.16
2022-08-23T00:29:56.164Z,50.21
2022-08-23T00:32:26.188Z,50.42
2022-08-23T00:34:57.045Z,50.35
2022-08-23T00:37:32.474Z,50.59
2022-08-23T00:40:00.182Z,49.96
2022-08-23T00:42:52.299Z,50.52
2022-08-23T00:45:50.247Z,50.67
2022-08-23T00:48:17.542Z,50.56
2022-08-23T00:50:49.669Z,50.60
2022-08-23T00:53:23.009Z,51.23
2022-08-23T00:55:51.802Z,51.17
2022-08-23T00:58:19.834Z,48.43
2022-08-23T01:00:49.002Z,50.18
2022-08-23T01:03:19.563Z,50.01
2022-08-23T01:05:55.060Z,49.69
2022-08-23T01:08:23.634Z,48.97
2022-08-23T01:10:52.827Z,49.40
2022-08-23T01:13:48.898Z,50.14
2022-08-23T01:16:17.337Z,50.43
2022-08-23T01:18:47.831Z,50.32
2022-08-23T01:21:17.344Z,48.49
2022-08-23T01:23:49.859Z,49.96
2022-08-23T01:26:21.774Z,49.95
2022-08-23T01:28:50.265Z,49.81
2022-08-23T01:31:18.208Z,46.69
2022-08-23T01:33:49.950Z,46.57
2022-08-23T01:36:17.738Z,47.03
2022-08-23T01:38:48.280Z,48.90
2022-08-23T01:41:15.584Z,48.11
2022-08-23T01:43:43.000Z,49.05
2022-08-23T01:46:18.108Z,48.90
2022-08-23T01:48:46.459Z,48.72
2022-08-23T01:51:17.579Z,49.05
2022-08-23T01:53:48.352Z,48.97
2022-08-23T01:56:27.663Z,48.86
2022-08-23T01:59:10.948Z,48.42
2022-08-23T02:01:43.895Z,48.45
2022-08-23T02:04:11.992Z,47.15
2022-08-23T02:06:39.444Z,49.01
2022-08-23T02:09:17.186Z,48.46
2022-08-23T02:11:45.827Z,48.79
2022-08-23T02:14:15.844Z,48.25
2022-08-23T02:17:03.601Z,48.35
2022-08-23T02:19:33.214Z,48.17
2022-08-23T02:22:06.098Z,48.21
2022-08-23T02:24:34.446Z,48.20
2022-08-23T02:27:04.403Z,48.27
2022-08-23T02:29:39.094Z,48.24
2022-08-23T02:32:09.770Z,48.18
2022-08-23T02:34:40.764Z,49.07
2022-08-23T02:37:09.166Z,48.81
2022-08-23T02:39:36.697Z,49.45
2022-08-23T02:42:11.833Z,49.04
2022-08-23T02:44:44.627Z,49.58
2022-08-23T02:47:12.552Z,50.20
2022-08-23T02:49:44.581Z,50.16
2022-08-23T02:52:11.873Z,50.30
2022-08-23T02:54:40.348Z,50.71
2022-08-23T02:57:08.678Z,50.62
2022-08-23T02:59:37.349Z,51.60
2022-08-23T03:02:06.177Z,51.58
2022-08-23T03:04:39.238Z,51.82
2022-08-23T03:07:06.699Z,51.73
2022-08-23T03:09:36.241Z,51.43
2022-08-23T03:12:04.549Z,51.88
2022-08-23T03:14:35.352Z,52.06
2022-08-23T03:17:07.687Z,52.20
2022-08-23T03:19:35.265Z,52.44
2022-08-23T03:22:02.635Z,52.64
2022-08-23T03:24:32.842Z,52.55
2022-08-23T03:27:07.945Z,52.72
2022-08-23T03:29:37.821Z,52.96
2022-08-23T03:32:07.544Z,52.73
2022-08-23T03:34:37.878Z,52.92
2022-08-23T03:37:10.223Z,52.91
2022-08-23T03:39:38.453Z,52.97
2022-08-23T03:42:08.763Z,53.88
2022-08-23T03:44:37.081Z,53.76
2022-08-23T03:47:06.130Z,53.85
2022-08-23T03:49:36.180Z,54.22
2022-08-23T03:52:04.279Z,53.52
2022-08-23T03:54:32.715Z,54.68
2022-08-23T03:57:02.653Z,53.62
2022-08-23T03:59:34.695Z,55.42
2022-08-23T04:02:03.638Z,54.44
2022-08-23T04:04:32.150Z,55.28
2022-08-23T04:07:25.766Z,54.19
2022-08-23T04:09:56.341Z,54.48
2022-08-23T04:12:26.496Z,50.51
2022-08-23T04:14:53.841Z,54.78
2022-08-23T04:17:22.382Z,54.44
2022-08-23T04:19:51.194Z,54.17
2022-08-23T04:22:19.765Z,54.02
2022-08-23T04:24:47.252Z,53.64
2022-08-23T04:27:15.120Z,53.33
2022-08-23T04:29:43.443Z,52.34
2022-08-23T04:32:12.852Z,53.30
2022-08-23T04:34:45.487Z,53.03
2022-08-23T04:37:15.101Z,53.35
2022-08-23T04:40:01.650Z,53.04
2022-08-23T04:42:36.189Z,52.36
2022-08-23T04:45:03.837Z,53.16
2022-08-23T04:47:44.839Z,53.49
2022-08-23T04:50:12.552Z,53.38
2022-08-23T04:53:02.205Z,53.16
2022-08-23T04:55:35.006Z,53.34
2022-08-23T04:58:06.555Z,53.84
2022-08-23T05:00:42.875Z,53.60
2022-08-23T05:03:15.304Z,53.54
2022-08-23T05:05:43.027Z,54.00
2022-08-23T05:08:10.602Z,53.79
2022-08-23T05:10:38.224Z,54.98
2022-08-23T05:15:54.271Z,53.73
2022-08-23T05:18:25.072Z,55.01
2022-08-23T05:20:53.651Z,55.02
2022-08-23T05:23:29.346Z,54.76
2022-08-23T05:26:05.857Z,55.14
2022-08-23T05:28:39.969Z,56.32
2022-08-23T05:31:10.410Z,56.55
2022-08-23T05:33:46.923Z,56.22
2022-08-23T05:36:18.749Z,55.27
2022-08-23T05:38:47.159Z,57.76
2022-08-23T05:41:16.890Z,57.10
2022-08-23T05:43:47.754Z,57.73
2022-08-23T05:46:16.518Z,57.81
2022-08-23T05:48:55.089Z,58.38
2022-08-23T05:51:28.440Z,58.07
2022-08-23T05:53:57.862Z,58.69
2022-08-23T05:56:26.838Z,59.06
2022-08-23T05:58:59.946Z,58.29
2022-08-23T06:01:34.305Z,58.69
2022-08-23T06:04:12.023Z,59.10
2022-08-23T06:06:42.527Z,60.60
2022-08-23T06:09:17.103Z,60.51
2022-08-23T06:11:50.438Z,60.13
2022-08-23T06:14:19.076Z,60.30
2022-08-23T06:16:49.530Z,60.94
2022-08-23T06:19:25.324Z,61.10
2022-08-23T06:22:13.808Z,61.26
2022-08-23T06:24:43.877Z,61.64
2022-08-23T06:27:16.176Z,61.16
2022-08-23T06:29:46.177Z,62.31
2022-08-23T06:32:39.281Z,62.19
2022-08-23T06:35:49.052Z,61.72
2022-08-23T06:38:30.402Z,61.97
2022-08-23T06:41:01.808Z,62.68
2022-08-23T06:43:41.844Z,62.64
2022-08-23T06:49:30.175Z,62.27
2022-08-23T06:52:05.711Z,63.17
2022-08-23T06:54:59.612Z,62.33
2022-08-23T06:57:52.908Z,60.51
2022-08-23T07:00:33.624Z,60.88
2022-08-23T07:03:17.865Z,61.16
2022-08-23T07:06:06.814Z,61.41
2022-08-23T07:08:38.350Z,61.42
2022-08-23T07:11:08.922Z,60.15
2022-08-23T07:14:07.084Z,60.01
2022-08-23T07:16:34.730Z,59.66
2022-08-23T07:19:02.543Z,61.06
2022-08-23T07:21:30.637Z,59.91
2022-08-23T07:26:48.209Z,57.75
2022-08-23T07:29:19.435Z,58.32
2022-08-23T07:31:58.674Z,58.59
2022-08-23T07:34:30.599Z,57.39
2022-08-23T07:36:58.892Z,58.50
2022-08-23T07:39:26.731Z,58.49
2022-08-23T07:41:55.341Z,58.33
2022-08-23T07:44:27.173Z,58.31
2022-08-23T07:47:50.422Z,57.67
2022-08-23T07:50:23.908Z,56.92
2022-08-23T07:53:03.273Z,56.21
2022-08-23T07:55:32.492Z,57.45
2022-08-23T07:58:35.227Z,56.47
2022-08-23T08:01:27.406Z,56.55
2022-08-23T08:03:58.748Z,56.87
2022-08-23T08:06:35.130Z,57.55
2022-08-23T08:09:02.450Z,57.67
2022-08-23T08:11:34.815Z,57.53
2022-08-23T08:14:04.874Z,57.28
2022-08-23T08:16:33.598Z,56.63
2022-08-23T08:19:03.786Z,55.06
2022-08-23T08:21:51.452Z,56.32
2022-08-23T08:24:28.943Z,55.65
2022-08-23T08:27:04.705Z,55.40
2022-08-23T08:29:33.327Z,55.92
2022-08-23T08:32:01.047Z,54.83
2022-08-23T08:34:28.645Z,55.93
2022-08-23T08:36:59.253Z,54.88
2022-08-23T08:39:29.346Z,55.01
2022-08-23T08:42:05.526Z,55.09
2022-08-23T08:44:47.139Z,54.92
2022-08-23T08:47:21.481Z,55.04
2022-08-23T08:49:48.901Z,54.81
2022-08-23T08:52:16.865Z,54.09
2022-08-23T08:54:48.052Z,54.79
2022-08-23T08:57:16.876Z,55.01
2022-08-23T08:59:46.234Z,53.77
2022-08-23T09:02:32.074Z,52.94
2022-08-23T09:05:02.606Z,51.85
2022-08-23T09:07:33.121Z,52.85
2022-08-23T09:10:04.051Z,53.03
2022-08-23T09:12:35.619Z,53.56
2022-08-23T09:15:26.923Z,53.91
2022-08-23T09:18:17.473Z,51.21
2022-08-23T09:20:47.767Z,53.86
2022-08-23T09:23:24.003Z,51.95
2022-08-23T09:25:58.812Z,52.27
2022-08-23T09:28:34.040Z,52.30
2022-08-23T09:31:08.372Z,48.82
2022-08-23T09:33:46.271Z,49.70
2022-08-23T09:40:41.330Z,49.96
2022-08-23T09:43:32.106Z,50.05
2022-08-23T09:46:02.256Z,52.19
2022-08-23T09:48:40.630Z,51.80
2022-08-23T09:51:17.667Z,50.96
2022-08-23T09:53:53.615Z,50.24
2022-08-23T09:56:24.558Z,51.78
2022-08-23T09:58:53.866Z,51.15
2022-08-23T10:02:02.059Z,49.00
2022-08-23T10:04:37.005Z,47.72
2022-08-23T10:07:26.278Z,48.88
2022-08-23T10:10:12.699Z,48.46
2022-08-23T10:12:42.917Z,48.94
2022-08-23T10:15:11.675Z,50.23
2022-08-23T10:21:34.070Z,48.25
2022-08-23T10:28:06.959Z,48.40
2022-08-23T10:30:54.492Z,51.57
2022-08-23T10:33:27.205Z,46.13
2022-08-23T10:36:14.874Z,46.80
2022-08-23T10:38:42.376Z,44.11
2022-08-23T10:41:34.425Z,46.55
2022-08-23T10:44:09.749Z,46.68
2022-08-23T10:46:43.644Z,46.47
2022-08-23T10:49:14.930Z,44.73
2022-08-23T10:51:45.865Z,45.79
2022-08-23T10:54:18.496Z,47.50
2022-08-23T10:56:51.133Z,44.51
2022-08-23T10:59:29.038Z,44.58
2022-08-23T11:02:17.829Z,44.38
2022-08-23T11:05:07.944Z,46.12
2022-08-23T11:07:37.603Z,43.55
2022-08-23T11:10:26.934Z,41.52
2022-08-23T11:12:55.779Z,41.26
2022-08-23T11:15:23.954Z,40.60
2022-08-23T11:17:56.411Z,45.63
2022-08-23T11:20:44.014Z,37.32
2022-08-23T11:23:13.015Z,42.41
2022-08-23T11:25:47.081Z,43.08
2022-08-23T11:28:23.786Z,40.39
2022-08-23T11:31:19.915Z,42.43
2022-08-23T11:33:53.823Z,41.74
2022-08-23T11:37:13.060Z,40.28
2022-08-23T11:40:26.946Z,35.11
2022-08-23T11:42:59.941Z,35.15
2022-08-23T11:45:33.361Z,32.92
2022-08-23T11:52:27.955Z,32.24
2022-08-23T11:55:06.606Z,35.54
2022-08-23T12:01:54.936Z,34.34
2022-08-23T12:07:37.669Z,38.01
2022-08-23T12:10:05.315Z,36.04
2022-08-23T12:12:38.461Z,34.63
2022-08-23T12:15:12.699Z,31.75
2022-08-23T12:18:09.052Z,32.26
2022-08-23T12:20:36.919Z,32.89
2022-08-23T12:23:37.279Z,31.15
2022-08-23T12:26:09.389Z,28.74
2022-08-23T12:33:04.870Z,28.63
2022-08-23T12:35:45.307Z,29.70
2022-08-23T12:38:33.127Z,30.64
2022-08-23T12:41:12.406Z,30.72
2022-08-23T12:43:57.423Z,30.75
2022-08-23T12:46:32.306Z,29.85
2022-08-23T12:51:48.786Z,28.73
2022-08-23T12:54:18.143Z,27.32
2022-08-23T12:56:58.825Z,28.31
2022-08-23T13:02:25.194Z,27.33
2022-08-23T13:04:52.962Z,27.36
2022-08-23T13:07:23.405Z,29.31
2022-08-23T13:09:53.602Z,27.53
2022-08-23T13:12:22.982Z,28.63
2022-08-23T13:14:51.662Z,28.71
2022-08-23T13:17:22.078Z,29.52
2022-08-23T13:20:01.334Z,28.16
2022-08-23T13:22:29.708Z,30.57
2022-08-23T13:25:32.133Z,28.25
2022-08-23T13:28:22.825Z,29.60
2022-08-23T13:31:03.844Z,29.35
2022-08-23T13:33:34.768Z,27.45
2022-08-23T13:36:16.934Z,29.73
2022-08-23T13:38:45.635Z,28.96
2022-08-23T13:41:38.359Z,31.50
2022-08-23T13:44:18.974Z,31.08
2022-08-23T13:46:50.023Z,29.31
2022-08-23T13:49:24.057Z,29.60
2022-08-23T13:54:53.108Z,36.44
2022-08-23T13:57:41.527Z,38.01
2022-08-23T14:00:19.285Z,35.90
2022-08-23T14:02:50.967Z,37.73
2022-08-23T14:05:19.871Z,38.32
2022-08-23T14:07:48.650Z,39.05
2022-08-23T14:10:39.661Z,40.59
2022-08-23T14:13:08.417Z,39.56
2022-08-23T14:18:26.871Z,41.33
2022-08-23T14:20:56.880Z,40.00
2022-08-23T14:23:25.229Z,38.68
2022-08-23T14:25:55.944Z,38.89
2022-08-23T14:28:44.567Z,40.50
2022-08-23T14:31:12.313Z,39.97
2022-08-23T14:33:39.918Z,41.90
2022-08-23T14:36:07.946Z,39.68
2022-08-23T14:38:35.465Z,38.43
2022-08-23T14:41:04.378Z,38.93
2022-08-23T14:43:53.193Z,38.77
2022-08-23T14:46:23.862Z,39.67
2022-08-23T14:48:51.392Z,41.47
2022-08-23T14:51:25.081Z,39.00
2022-08-23T14:53:55.078Z,41.56
2022-08-23T14:56:57.438Z,41.36
2022-08-23T14:59:27.472Z,40.13
2022-08-23T15:02:18.442Z,39.71
2022-08-23T15:04:52.292Z,41.73
2022-08-23T15:07:20.101Z,41.09
2022-08-23T15:10:00.129Z,40.02
2022-08-23T15:15:34.492Z,39.66
2022-08-23T15:18:10.531Z,41.03
2022-08-23T15:20:43.959Z,40.00
2022-08-23T15:23:11.897Z,41.30
2022-08-23T15:25:45.714Z,40.72
2022-08-23T15:28:18.511Z,41.08
2022-08-23T15:30:51.753Z,40.15
2022-08-23T15:33:33.103Z,41.18
2022-08-23T15:36:08.459Z,40.10
2022-08-23T15:38:38.443Z,40.27
2022-08-23T15:41:13.675Z,40.13
2022-08-23T15:43:44.511Z,40.16
2022-08-23T15:46:26.351Z,40.12
2022-08-23T15:48:56.869Z,40.78
2022-08-23T15:51:27.318Z,41.21
2022-08-23T15:54:00.832Z,39.82
2022-08-23T15:56:40.008Z,40.81
2022-08-23T15:59:10.390Z,41.99
2022-08-23T16:01:42.772Z,41.41
2022-08-23T16:11:41.453Z,40.03
2022-08-23T16:14:15.508Z,41.12
2022-08-23T16:16:49.701Z,40.94
2022-08-23T16:19:17.250Z,40.34
2022-08-23T16:21:52.028Z,40.58
2022-08-23T16:24:24.467Z,39.08
2022-08-23T16:27:21.807Z,40.26
2022-08-23T16:29:52.079Z,39.83
2022-08-23T16:32:44.039Z,40.36
2022-08-23T16:35:21.064Z,39.42
2022-08-23T16:37:49.595Z,42.07
2022-08-23T16:40:22.569Z,39.51
2022-08-23T16:43:02.849Z,40.00
2022-08-23T16:45:36.078Z,41.52
2022-08-23T16:48:04.375Z,41.08
2022-08-23T16:50:42.026Z,40.53
2022-08-23T16:53:12.044Z,41.58
2022-08-23T16:55:44.875Z,39.80
2022-08-23T16:58:15.087Z,41.20
2022-08-23T17:00:47.913Z,40.38
2022-08-23T17:03:19.515Z,40.69
2022-08-23T17:05:51.482Z,39.90
2022-08-23T17:08:19.345Z,40.64
2022-08-23T17:10:49.442Z,40.30
2022-08-23T17:13:19.376Z,39.16
2022-08-23T17:15:55.916Z,40.92
2022-08-23T17:18:27.715Z,42.74
2022-08-23T17:21:00.150Z,41.07
2022-08-23T17:23:33.530Z,43.07
2022-08-23T17:26:06.854Z,40.75
2022-08-23T17:28:36.964Z,38.83
2022-08-23T17:31:12.377Z,41.81
2022-08-23T17:33:45.160Z,40.55
2022-08-23T17:36:54.567Z,42.53
2022-08-23T17:39:28.957Z,39.95
2022-08-23T17:42:02.518Z,40.03
2022-08-23T17:44:35.599Z,41.76
2022-08-23T17:47:07.838Z,41.09
2022-08-23T17:49:38.233Z,41.86
2022-08-23T17:52:06.526Z,40.92
2022-08-23T17:54:45.872Z,41.08
2022-08-23T17:57:16.280Z,41.96
2022-08-23T17:59:46.927Z,42.79
2022-08-23T18:02:26.105Z,42.06
2022-08-23T18:05:01.034Z,42.34
2022-08-23T18:07:34.034Z,41.94
2022-08-23T18:10:01.611Z,43.78
2022-08-23T18:12:31.601Z,43.25
2022-08-23T18:15:06.061Z,43.65
2022-08-23T18:17:33.931Z,44.37
2022-08-23T18:20:06.812Z,44.01
2022-08-23T18:22:59.550Z,44.68
2022-08-23T18:25:29.591Z,43.67
2022-08-23T18:28:25.418Z,43.59
2022-08-23T18:31:00.843Z,44.81
2022-08-23T18:33:47.031Z,43.17
2022-08-23T18:36:15.773Z,43.09
2022-08-23T18:38:48.563Z,44.37
2022-08-23T18:41:24.574Z,45.71
2022-08-23T18:43:58.366Z,45.70
2022-08-23T18:46:33.607Z,45.41
2022-08-23T18:49:01.624Z,45.69
2022-08-23T18:51:37.875Z,45.94
2022-08-23T18:54:13.932Z,45.64
2022-08-23T18:56:45.240Z,46.83
2022-08-23T18:59:16.043Z,47.31
2022-08-23T19:01:51.674Z,47.66
2022-08-23T19:04:49.829Z,48.65
2022-08-23T19:07:37.604Z,48.57
2022-08-23T19:10:09.464Z,49.63
2022-08-23T19:12:40.351Z,49.81
2022-08-23T19:15:33.703Z,50.08
2022-08-23T19:18:04.558Z,50.35
2022-08-23T19:20:43.803Z,50.88
2022-08-23T19:23:32.719Z,50.09
2022-08-23T19:26:09.896Z,50.19
2022-08-23T19:28:42.928Z,50.58
2022-08-23T19:31:15.887Z,50.56
2022-08-23T19:33:48.192Z,50.43
2022-08-23T19:36:42.689Z,50.98
2022-08-23T19:39:12.621Z,51.71
2022-08-23T19:41:45.508Z,51.94
2022-08-23T19:44:36.252Z,51.65
2022-08-23T19:47:19.426Z,51.19
2022-08-23T19:49:53.532Z,50.91
2022-08-23T19:52:24.930Z,51.90
2022-08-23T19:55:04.436Z,51.83
2022-08-23T19:57:36.416Z,51.74
2022-08-23T20:00:14.578Z,52.46
2022-08-23T20:02:47.702Z,51.67
2022-08-23T20:05:17.605Z,51.49
2022-08-23T20:07:55.688Z,51.68
2022-08-23T20:10:27.787Z,51.58
2022-08-23T20:13:21.860Z,52.65
2022-08-23T20:15:54.284Z,51.99
2022-08-23T20:18:29.021Z,51.55
2022-08-23T20:24:04.691Z,52.29
2022-08-23T20:26:40.885Z,51.63
2022-08-23T20:29:14.211Z,51.55
2022-08-23T20:31:49.836Z,51.56
2022-08-23T20:34:27.039Z,51.37
2022-08-23T20:37:00.669Z,50.23
2022-08-23T20:39:28.596Z,49.60
2022-08-23T20:41:58.947Z,51.68
2022-08-23T20:44:31.851Z,50.68
2022-08-23T20:47:04.737Z,50.65
2022-08-23T20:49:41.338Z,50.84
2022-08-23T20:52:12.172Z,50.75
2022-08-23T20:54:45.115Z,49.65
2022-08-23T20:57:13.202Z,50.73
2022-08-23T20:59:46.990Z,50.40
2022-08-23T21:02:17.383Z,50.05
2022-08-23T21:04:55.995Z,49.49
2022-08-23T21:07:24.283Z,49.96
2022-08-23T21:10:01.041Z,50.53
2022-08-23T21:12:36.263Z,50.93
2022-08-23T21:18:00.707Z,50.31
2022-08-23T21:20:34.229Z,49.94
2022-08-23T21:23:05.628Z,50.33
2022-08-23T21:25:44.849Z,51.42
2022-08-23T21:28:18.298Z,50.91
2022-08-23T21:30:46.857Z,50.45
2022-08-23T21:33:16.828Z,51.26
2022-08-23T21:35:47.202Z,50.18
2022-08-23T21:38:17.886Z,51.48
2022-08-23T21:40:58.212Z,50.99
2022-08-23T21:43:35.152Z,51.40
2022-08-23T21:46:03.239Z,51.86
2022-08-23T21:48:36.078Z,51.51
2022-08-23T21:51:03.961Z,50.04
2022-08-23T21:53:31.515Z,50.59
2022-08-23T21:56:02.321Z,51.17
2022-08-23T21:58:30.098Z,50.67
2022-08-23T22:00:57.648Z,51.51
2022-08-23T22:03:47.607Z,52.09
2022-08-23T22:06:18.940Z,51.14
2022-08-23T22:08:47.923Z,51.25
2022-08-23T22:11:18.891Z,51.21
2022-08-23T22:13:53.171Z,51.03
2022-08-23T22:16:26.127Z,50.87
2022-08-23T22:18:56.582Z,52.42
2022-08-23T22:21:24.141Z,52.23
2022-08-23T22:23:52.910Z,52.57
2022-08-23T22:26:40.746Z,53.08
2022-08-23T22:29:14.445Z,53.28
2022-08-23T22:31:50.624Z,52.37
2022-08-23T22:34:27.436Z,53.31
2022-08-23T22:36:59.928Z,52.96
2022-08-23T22:39:34.139Z,52.77
2022-08-23T22:42:05.012Z,54.90
2022-08-23T22:44:40.154Z,53.82
2022-08-23T22:47:10.950Z,53.83
2022-08-23T22:49:46.779Z,53.81
2022-08-23T22:52:17.820Z,53.71
2022-08-23T22:55:10.842Z,53.56
2022-08-23T22:57:44.585Z,52.94
2022-08-23T23:00:23.276Z,53.18
2022-08-23T23:02:59.940Z,53.43
2022-08-23T23:05:31.670Z,52.88
2022-08-23T23:08:21.084Z,52.60
2022-08-23T23:10:54.158Z,53.12
2022-08-23T23:13:24.969Z,53.06
2022-08-23T23:15:58.176Z,53.00
2022-08-23T23:18:31.543Z,53.50
2022-08-23T23:21:05.504Z,53.25
2022-08-23T23:23:39.671Z,53.26
2022-08-23T23:26:09.602Z,53.27
2022-08-23T23:28:40.182Z,52.76
2022-08-23T23:31:35.562Z,54.92
2022-08-23T23:34:11.008Z,54.76
2022-08-23T23:36:43.174Z,54.75
2022-08-23T23:39:20.079Z,54.38
2022-08-23T23:41:50.884Z,54.14
2022-08-23T23:44:30.916Z,54.81
2022-08-23T23:47:02.792Z,54.63
2022-08-23T23:49:37.312Z,54.33
2022-08-23T23:52:30.198Z,53.62
2022-08-23T23:54:57.837Z,54.14
2022-08-23T23:57:28.149Z,54.46
